sensor_id;sensor_type;location;lat;lon;timestamp;pressure;altitude;pressure_sealevel;temperature;humidity
82160;BME280;71734;50.876;7.372;2023-09-18T00:01:16;98255.44;;;21.88;64.93
82160;BME280;71734;50.876;7.372;2023-09-18T00:03:44;98252.63;;;21.80;65.57
82160;BME280;71734;50.876;7.372;2023-09-18T00:06:11;98248.03;;;21.80;64.81
82160;BME280;71734;50.876;7.372;2023-09-18T00:08:38;98246.97;;;21.64;65.63
82160;BME280;71734;50.876;7.372;2023-09-18T00:11:06;98244.69;;;21.50;66.23
82160;BME280;71734;50.876;7.372;2023-09-18T00:13:34;98245.50;;;21.69;65.64
82160;BME280;71734;50.876;7.372;2023-09-18T00:16:00;98225.69;;;21.51;65.62
82160;BME280;71734;50.876;7.372;2023-09-18T00:18:29;98226.25;;;21.55;65.79
82160;BME280;71734;50.876;7.372;2023-09-18T00:20:55;98218.59;;;21.41;66.21
82160;BME280;71734;50.876;7.372;2023-09-18T00:23:22;98224.25;;;21.57;65.80
82160;BME280;71734;50.876;7.372;2023-09-18T00:25:48;98216.47;;;21.54;65.74
82160;BME280;71734;50.876;7.372;2023-09-18T00:28:16;98195.19;;;21.41;65.84
82160;BME280;71734;50.876;7.372;2023-09-18T00:30:47;98194.16;;;21.61;65.17
82160;BME280;71734;50.876;7.372;2023-09-18T00:33:14;98194.59;;;21.57;65.64
82160;BME280;71734;50.876;7.372;2023-09-18T00:35:40;98187.22;;;21.59;65.35
82160;BME280;71734;50.876;7.372;2023-09-18T00:38:06;98194.75;;;21.55;65.15
82160;BME280;71734;50.876;7.372;2023-09-18T00:40:33;98183.72;;;21.10;67.00
82160;BME280;71734;50.876;7.372;2023-09-18T00:43:00;98184.56;;;21.01;67.34
82160;BME280;71734;50.876;7.372;2023-09-18T00:45:29;98180.03;;;20.82;67.80
82160;BME280;71734;50.876;7.372;2023-09-18T00:47:55;98188.25;;;21.00;67.29
82160;BME280;71734;50.876;7.372;2023-09-18T00:50:22;98183.44;;;20.94;67.67
82160;BME280;71734;50.876;7.372;2023-09-18T00:52:49;98170.66;;;21.06;66.90
82160;BME280;71734;50.876;7.372;2023-09-18T00:55:16;98168.56;;;20.90;67.41
82160;BME280;71734;50.876;7.372;2023-09-18T00:57:43;98170.94;;;20.83;67.77
82160;BME280;71734;50.876;7.372;2023-09-18T01:00:12;98168.28;;;20.74;67.78
82160;BME280;71734;50.876;7.372;2023-09-18T01:02:42;98176.03;;;20.67;68.40
82160;BME280;71734;50.876;7.372;2023-09-18T01:05:10;98165.53;;;20.55;68.88
82160;BME280;71734;50.876;7.372;2023-09-18T01:07:36;98180.00;;;20.54;68.80
82160;BME280;71734;50.876;7.372;2023-09-18T01:10:03;98163.84;;;20.54;69.08
82160;BME280;71734;50.876;7.372;2023-09-18T01:12:35;98164.56;;;20.75;68.12
82160;BME280;71734;50.876;7.372;2023-09-18T01:15:09;98154.50;;;20.67;68.09
82160;BME280;71734;50.876;7.372;2023-09-18T01:17:39;98162.16;;;20.53;68.45
82160;BME280;71734;50.876;7.372;2023-09-18T01:20:09;98161.31;;;20.62;68.63
82160;BME280;71734;50.876;7.372;2023-09-18T01:22:37;98163.84;;;20.54;68.71
82160;BME280;71734;50.876;7.372;2023-09-18T01:25:04;98165.28;;;20.58;68.57
82160;BME280;71734;50.876;7.372;2023-09-18T01:27:31;98164.16;;;20.70;68.16
82160;BME280;71734;50.876;7.372;2023-09-18T01:29:58;98165.72;;;20.72;67.92
82160;BME280;71734;50.876;7.372;2023-09-18T01:32:27;98156.47;;;20.56;68.28
82160;BME280;71734;50.876;7.372;2023-09-18T01:34:57;98160.00;;;20.47;68.70
82160;BME280;71734;50.876;7.372;2023-09-18T01:37:27;98169.47;;;20.31;69.33
82160;BME280;71734;50.876;7.372;2023-09-18T01:39:56;98172.81;;;20.24;69.97
82160;BME280;71734;50.876;7.372;2023-09-18T01:42:24;98159.78;;;20.19;70.29
82160;BME280;71734;50.876;7.372;2023-09-18T01:44:52;98149.19;;;20.27;70.21
82160;BME280;71734;50.876;7.372;2023-09-18T01:47:20;98149.94;;;20.29;69.71
82160;BME280;71734;50.876;7.372;2023-09-18T01:49:48;98146.97;;;20.32;69.52
82160;BME280;71734;50.876;7.372;2023-09-18T01:52:15;98144.91;;;20.15;70.03
82160;BME280;71734;50.876;7.372;2023-09-18T01:54:41;98139.28;;;20.28;69.36
82160;BME280;71734;50.876;7.372;2023-09-18T01:57:09;98139.28;;;20.28;69.85
82160;BME280;71734;50.876;7.372;2023-09-18T01:59:37;98137.03;;;20.42;69.31
82160;BME280;71734;50.876;7.372;2023-09-18T02:02:04;98126.84;;;20.36;69.18
82160;BME280;71734;50.876;7.372;2023-09-18T02:04:33;98131.53;;;20.44;69.05
82160;BME280;71734;50.876;7.372;2023-09-18T02:06:59;98119.31;;;20.30;69.41
82160;BME280;71734;50.876;7.372;2023-09-18T02:09:26;98141.97;;;20.28;69.89
82160;BME280;71734;50.876;7.372;2023-09-18T02:11:52;98155.03;;;20.32;69.90
82160;BME280;71734;50.876;7.372;2023-09-18T02:14:20;98156.47;;;20.36;69.47
82160;BME280;71734;50.876;7.372;2023-09-18T02:16:49;98145.69;;;20.36;69.45
82160;BME280;71734;50.876;7.372;2023-09-18T02:19:16;98134.50;;;20.31;69.70
82160;BME280;71734;50.876;7.372;2023-09-18T02:21:45;98141.50;;;20.23;70.39
82160;BME280;71734;50.876;7.372;2023-09-18T02:24:13;98147.41;;;20.37;69.50
82160;BME280;71734;50.876;7.372;2023-09-18T02:26:39;98141.44;;;20.44;68.70
82160;BME280;71734;50.876;7.372;2023-09-18T02:29:07;98140.63;;;20.53;68.18
82160;BME280;71734;50.876;7.372;2023-09-18T02:31:36;98126.47;;;20.70;67.42
82160;BME280;71734;50.876;7.372;2023-09-18T02:34:03;98136.34;;;20.79;67.18
82160;BME280;71734;50.876;7.372;2023-09-18T02:36:29;98128.56;;;20.76;67.51
82160;BME280;71734;50.876;7.372;2023-09-18T02:38:56;98122.50;;;20.74;68.13
82160;BME280;71734;50.876;7.372;2023-09-18T02:41:22;98103.50;;;20.56;70.00
82160;BME280;71734;50.876;7.372;2023-09-18T02:43:49;98091.59;;;20.49;71.31
82160;BME280;71734;50.876;7.372;2023-09-18T02:46:15;98079.06;;;20.19;72.91
82160;BME280;71734;50.876;7.372;2023-09-18T02:48:43;98078.47;;;20.06;73.70
82160;BME280;71734;50.876;7.372;2023-09-18T02:51:10;98060.06;;;19.92;75.34
82160;BME280;71734;50.876;7.372;2023-09-18T02:53:36;98034.88;;;20.03;74.09
82160;BME280;71734;50.876;7.372;2023-09-18T02:56:33;98034.16;;;19.91;77.21
82160;BME280;71734;50.876;7.372;2023-09-18T02:59:00;98030.00;;;19.68;77.92
82160;BME280;71734;50.876;7.372;2023-09-18T03:01:27;98023.53;;;19.80;76.80
82160;BME280;71734;50.876;7.372;2023-09-18T03:03:54;98009.94;;;19.91;76.44
82160;BME280;71734;50.876;7.372;2023-09-18T03:06:21;98026.91;;;19.82;76.86
82160;BME280;71734;50.876;7.372;2023-09-18T03:08:48;98008.38;;;19.79;77.79
82160;BME280;71734;50.876;7.372;2023-09-18T03:11:14;98014.72;;;19.68;77.76
82160;BME280;71734;50.876;7.372;2023-09-18T03:13:45;98036.34;;;19.27;79.94
82160;BME280;71734;50.876;7.372;2023-09-18T03:16:12;98029.53;;;19.32;80.03
82160;BME280;71734;50.876;7.372;2023-09-18T03:18:39;98026.91;;;19.42;79.67
82160;BME280;71734;50.876;7.372;2023-09-18T03:21:06;98024.31;;;19.31;80.37
82160;BME280;71734;50.876;7.372;2023-09-18T03:23:33;98014.50;;;19.20;80.67
82160;BME280;71734;50.876;7.372;2023-09-18T03:25:59;98020.47;;;19.24;80.63
82160;BME280;71734;50.876;7.372;2023-09-18T03:28:26;98027.38;;;19.17;80.78
82160;BME280;71734;50.876;7.372;2023-09-18T03:30:52;98029.75;;;19.10;80.48
82160;BME280;71734;50.876;7.372;2023-09-18T03:33:19;98042.19;;;19.11;80.29
82160;BME280;71734;50.876;7.372;2023-09-18T03:35:46;98025.72;;;19.25;80.10
82160;BME280;71734;50.876;7.372;2023-09-18T03:38:15;98040.34;;;19.12;81.01
82160;BME280;71734;50.876;7.372;2023-09-18T03:40:41;98032.25;;;19.02;81.36
82160;BME280;71734;50.876;7.372;2023-09-18T03:43:09;98041.00;;;19.04;80.96
82160;BME280;71734;50.876;7.372;2023-09-18T03:45:35;98043.19;;;18.89;81.91
82160;BME280;71734;50.876;7.372;2023-09-18T03:48:02;98033.59;;;18.87;82.02
82160;BME280;71734;50.876;7.372;2023-09-18T03:50:29;98037.16;;;18.97;81.24
82160;BME280;71734;50.876;7.372;2023-09-18T03:52:55;98033.31;;;18.90;81.87
82160;BME280;71734;50.876;7.372;2023-09-18T03:55:23;98042.06;;;18.92;82.04
82160;BME280;71734;50.876;7.372;2023-09-18T03:57:49;98033.31;;;18.90;81.65
82160;BME280;71734;50.876;7.372;2023-09-18T04:00:16;98031.59;;;18.89;81.92
82160;BME280;71734;50.876;7.372;2023-09-18T04:02:43;98041.38;;;18.90;81.48
82160;BME280;71734;50.876;7.372;2023-09-18T04:05:09;98031.03;;;18.85;81.15
82160;BME280;71734;50.876;7.372;2023-09-18T04:07:45;98031.47;;;18.90;80.92
82160;BME280;71734;50.876;7.372;2023-09-18T04:10:12;98030.34;;;18.93;80.63
82160;BME280;71734;50.876;7.372;2023-09-18T04:12:46;98048.19;;;18.94;80.93
82160;BME280;71734;50.876;7.372;2023-09-18T04:15:14;98041.03;;;18.83;81.45
82160;BME280;71734;50.876;7.372;2023-09-18T04:17:40;98036.47;;;18.95;80.99
82160;BME280;71734;50.876;7.372;2023-09-18T04:20:08;98028.31;;;19.06;80.04
82160;BME280;71734;50.876;7.372;2023-09-18T04:22:35;98034.47;;;18.97;80.33
82160;BME280;71734;50.876;7.372;2023-09-18T04:25:01;98048.25;;;18.83;80.75
82160;BME280;71734;50.876;7.372;2023-09-18T04:27:30;98052.88;;;18.81;80.49
82160;BME280;71734;50.876;7.372;2023-09-18T04:29:58;98051.84;;;18.72;80.94
82160;BME280;71734;50.876;7.372;2023-09-18T04:32:29;98041.97;;;18.73;80.78
82160;BME280;71734;50.876;7.372;2023-09-18T04:34:58;98042.28;;;18.79;80.66
82160;BME280;71734;50.876;7.372;2023-09-18T04:37:24;98040.25;;;18.72;80.57
82160;BME280;71734;50.876;7.372;2023-09-18T04:39:57;98035.81;;;18.82;80.39
82160;BME280;71734;50.876;7.372;2023-09-18T04:42:23;98029.59;;;18.81;80.02
82160;BME280;71734;50.876;7.372;2023-09-18T04:44:53;98010.69;;;18.83;79.75
82160;BME280;71734;50.876;7.372;2023-09-18T04:47:20;98016.28;;;18.80;79.69
82160;BME280;71734;50.876;7.372;2023-09-18T04:49:47;98002.56;;;18.73;79.92
82160;BME280;71734;50.876;7.372;2023-09-18T04:52:14;97991.09;;;18.71;79.28
82160;BME280;71734;50.876;7.372;2023-09-18T04:54:41;97991.66;;;18.75;79.84
82160;BME280;71734;50.876;7.372;2023-09-18T04:57:07;97987.44;;;18.72;79.73
82160;BME280;71734;50.876;7.372;2023-09-18T04:59:35;97995.81;;;18.79;79.49
82160;BME280;71734;50.876;7.372;2023-09-18T05:02:01;97986.06;;;18.78;79.34
82160;BME280;71734;50.876;7.372;2023-09-18T05:04:29;97989.38;;;18.91;78.29
82160;BME280;71734;50.876;7.372;2023-09-18T05:06:56;97986.81;;;18.89;78.39
82160;BME280;71734;50.876;7.372;2023-09-18T05:09:22;98007.53;;;18.78;78.69
82160;BME280;71734;50.876;7.372;2023-09-18T05:11:52;98003.31;;;18.85;78.42
82160;BME280;71734;50.876;7.372;2023-09-18T05:14:18;97987.50;;;18.82;78.38
82160;BME280;71734;50.876;7.372;2023-09-18T05:16:45;97994.97;;;18.78;78.73
82160;BME280;71734;50.876;7.372;2023-09-18T05:22:20;98023.63;;;18.78;78.97
82160;BME280;71734;50.876;7.372;2023-09-18T05:24:46;98028.53;;;18.73;78.85
82160;BME280;71734;50.876;7.372;2023-09-18T05:27:12;98029.78;;;18.69;78.91
82160;BME280;71734;50.876;7.372;2023-09-18T05:29:39;98045.88;;;18.69;79.10
82160;BME280;71734;50.876;7.372;2023-09-18T05:32:05;98043.97;;;18.80;78.66
82160;BME280;71734;50.876;7.372;2023-09-18T05:34:32;98037.72;;;18.70;79.10
82160;BME280;71734;50.876;7.372;2023-09-18T05:36:58;98045.63;;;18.72;79.08
82160;BME280;71734;50.876;7.372;2023-09-18T05:39:26;98050.72;;;18.75;78.93
82160;BME280;71734;50.876;7.372;2023-09-18T05:41:52;98048.78;;;18.77;79.08
82160;BME280;71734;50.876;7.372;2023-09-18T05:44:19;98032.97;;;18.83;78.92
82160;BME280;71734;50.876;7.372;2023-09-18T05:46:45;98022.72;;;18.68;78.88
82160;BME280;71734;50.876;7.372;2023-09-18T05:49:11;98027.09;;;18.69;79.03
82160;BME280;71734;50.876;7.372;2023-09-18T05:51:38;98044.44;;;18.65;79.22
82160;BME280;71734;50.876;7.372;2023-09-18T05:54:05;98060.28;;;18.68;78.96
82160;BME280;71734;50.876;7.372;2023-09-18T05:56:33;98062.78;;;18.80;78.42
82160;BME280;71734;50.876;7.372;2023-09-18T05:59:00;98041.97;;;18.73;79.22
82160;BME280;71734;50.876;7.372;2023-09-18T06:01:26;98057.31;;;18.71;78.47
82160;BME280;71734;50.876;7.372;2023-09-18T06:03:53;98061.72;;;18.72;78.86
82160;BME280;71734;50.876;7.372;2023-09-18T06:06:19;98079.81;;;18.70;79.20
82160;BME280;71734;50.876;7.372;2023-09-18T06:08:45;98080.00;;;18.78;78.84
82160;BME280;71734;50.876;7.372;2023-09-18T06:11:12;98094.13;;;18.80;79.29
82160;BME280;71734;50.876;7.372;2023-09-18T06:13:40;98091.97;;;18.74;79.49
82160;BME280;71734;50.876;7.372;2023-09-18T06:16:06;98097.94;;;18.77;79.16
82160;BME280;71734;50.876;7.372;2023-09-18T06:18:33;98093.03;;;18.82;78.81
82160;BME280;71734;50.876;7.372;2023-09-18T06:21:00;98079.03;;;18.79;79.09
82160;BME280;71734;50.876;7.372;2023-09-18T06:23:27;98072.81;;;18.78;78.92
82160;BME280;71734;50.876;7.372;2023-09-18T06:25:53;98071.16;;;18.87;78.72
82160;BME280;71734;50.876;7.372;2023-09-18T06:28:21;98095.78;;;18.92;78.42
82160;BME280;71734;50.876;7.372;2023-09-18T06:30:49;98089.16;;;18.96;78.83
82160;BME280;71734;50.876;7.372;2023-09-18T06:33:15;98087.72;;;18.92;79.11
82160;BME280;71734;50.876;7.372;2023-09-18T06:35:42;98095.78;;;18.92;78.34
82160;BME280;71734;50.876;7.372;2023-09-18T06:38:09;98090.97;;;18.95;78.59
82160;BME280;71734;50.876;7.372;2023-09-18T06:40:37;98084.78;;;18.95;78.86
82160;BME280;71734;50.876;7.372;2023-09-18T06:43:04;98073.78;;;18.98;78.40
82160;BME280;71734;50.876;7.372;2023-09-18T06:45:31;98080.63;;;19.12;77.92
82160;BME280;71734;50.876;7.372;2023-09-18T06:47:59;98087.97;;;19.10;78.63
82160;BME280;71734;50.876;7.372;2023-09-18T06:50:26;98090.72;;;19.19;77.54
82160;BME280;71734;50.876;7.372;2023-09-18T06:52:52;98081.34;;;19.14;77.96
82160;BME280;71734;50.876;7.372;2023-09-18T06:55:19;98082.78;;;19.18;77.31
82160;BME280;71734;50.876;7.372;2023-09-18T06:57:45;98087.69;;;19.13;77.29
82160;BME280;71734;50.876;7.372;2023-09-18T07:00:13;98082.66;;;19.19;77.20
82160;BME280;71734;50.876;7.372;2023-09-18T07:02:43;98091.97;;;19.15;77.76
82160;BME280;71734;50.876;7.372;2023-09-18T07:05:11;98092.81;;;19.16;76.22
82160;BME280;71734;50.876;7.372;2023-09-18T07:07:39;98100.66;;;19.08;77.10
82160;BME280;71734;50.876;7.372;2023-09-18T07:10:06;98092.38;;;19.11;76.54
82160;BME280;71734;50.876;7.372;2023-09-18T07:12:32;98102.00;;;19.13;76.44
82160;BME280;71734;50.876;7.372;2023-09-18T07:15:00;98103.31;;;19.19;75.99
82160;BME280;71734;50.876;7.372;2023-09-18T07:17:28;98108.13;;;19.25;75.44
82160;BME280;71734;50.876;7.372;2023-09-18T07:19:55;98124.81;;;19.28;75.23
82160;BME280;71734;50.876;7.372;2023-09-18T07:22:23;98120.59;;;19.26;75.58
82160;BME280;71734;50.876;7.372;2023-09-18T07:24:49;98114.47;;;19.24;75.52
82160;BME280;71734;50.876;7.372;2023-09-18T07:27:15;98111.56;;;19.27;74.48
82160;BME280;71734;50.876;7.372;2023-09-18T07:29:42;98119.25;;;19.41;74.00
82160;BME280;71734;50.876;7.372;2023-09-18T07:32:09;98107.84;;;19.48;74.11
82160;BME280;71734;50.876;7.372;2023-09-18T07:34:35;98117.78;;;19.48;74.40
82160;BME280;71734;50.876;7.372;2023-09-18T07:37:02;98121.28;;;19.48;74.99
82160;BME280;71734;50.876;7.372;2023-09-18T07:39:30;98123.28;;;19.46;74.15
82160;BME280;71734;50.876;7.372;2023-09-18T07:41:57;98124.44;;;19.54;74.24
82160;BME280;71734;50.876;7.372;2023-09-18T07:44:24;98127.53;;;19.49;74.36
82160;BME280;71734;50.876;7.372;2023-09-18T07:46:50;98150.16;;;19.46;74.53
82160;BME280;71734;50.876;7.372;2023-09-18T07:49:17;98152.28;;;19.53;73.79
82160;BME280;71734;50.876;7.372;2023-09-18T07:51:43;98152.94;;;19.66;73.22
82160;BME280;71734;50.876;7.372;2023-09-18T07:54:13;98137.19;;;19.61;73.02
82160;BME280;71734;50.876;7.372;2023-09-18T07:56:42;98142.06;;;19.77;72.57
82160;BME280;71734;50.876;7.372;2023-09-18T07:59:08;98152.41;;;19.72;73.03
82160;BME280;71734;50.876;7.372;2023-09-18T08:01:35;98151.34;;;19.93;72.74
82160;BME280;71734;50.876;7.372;2023-09-18T08:04:02;98146.53;;;19.97;73.21
82160;BME280;71734;50.876;7.372;2023-09-18T08:06:28;98156.59;;;19.95;73.13
82160;BME280;71734;50.876;7.372;2023-09-18T08:08:55;98156.31;;;19.98;73.22
82160;BME280;71734;50.876;7.372;2023-09-18T08:11:21;98164.31;;;20.19;71.95
82160;BME280;71734;50.876;7.372;2023-09-18T08:13:49;98167.06;;;19.98;73.09
82160;BME280;71734;50.876;7.372;2023-09-18T08:16:15;98180.44;;;19.79;73.88
82160;BME280;71734;50.876;7.372;2023-09-18T08:18:42;98189.66;;;19.86;73.05
82160;BME280;71734;50.876;7.372;2023-09-18T08:21:09;98182.56;;;19.85;73.41
82160;BME280;71734;50.876;7.372;2023-09-18T08:23:35;98166.72;;;19.82;73.70
82160;BME280;71734;50.876;7.372;2023-09-18T08:26:02;98176.03;;;19.78;73.85
82160;BME280;71734;50.876;7.372;2023-09-18T08:28:29;98186.97;;;19.86;72.45
82160;BME280;71734;50.876;7.372;2023-09-18T08:30:57;98187.13;;;19.84;73.27
82160;BME280;71734;50.876;7.372;2023-09-18T08:33:24;98190.81;;;19.83;73.80
82160;BME280;71734;50.876;7.372;2023-09-18T08:35:50;98188.31;;;20.01;72.17
82160;BME280;71734;50.876;7.372;2023-09-18T08:38:16;98190.28;;;19.99;72.73
82160;BME280;71734;50.876;7.372;2023-09-18T08:40:43;98198.75;;;19.94;72.51
82160;BME280;71734;50.876;7.372;2023-09-18T08:43:11;98201.84;;;19.90;71.67
82160;BME280;71734;50.876;7.372;2023-09-18T08:45:43;98198.88;;;19.93;71.92
82160;BME280;71734;50.876;7.372;2023-09-18T08:48:14;98202.44;;;19.93;71.73
82160;BME280;71734;50.876;7.372;2023-09-18T08:50:41;98200.13;;;19.79;72.23
82160;BME280;71734;50.876;7.372;2023-09-18T08:53:08;98196.47;;;19.90;71.79
82160;BME280;71734;50.876;7.372;2023-09-18T08:55:38;98190.00;;;20.02;73.03
82160;BME280;71734;50.876;7.372;2023-09-18T08:58:06;98188.59;;;19.98;72.42
82160;BME280;71734;50.876;7.372;2023-09-18T09:00:36;98184.97;;;20.09;71.58
82160;BME280;71734;50.876;7.372;2023-09-18T09:03:03;98183.53;;;20.05;71.74
82160;BME280;71734;50.876;7.372;2023-09-18T09:05:32;98192.84;;;20.01;71.16
82160;BME280;71734;50.876;7.372;2023-09-18T09:07:59;98195.47;;;20.21;70.98
82160;BME280;71734;50.876;7.372;2023-09-18T09:10:26;98195.56;;;20.40;71.24
82160;BME280;71734;50.876;7.372;2023-09-18T09:12:54;98196.69;;;20.48;70.10
82160;BME280;71734;50.876;7.372;2023-09-18T09:15:22;98193.00;;;20.39;69.57
82160;BME280;71734;50.876;7.372;2023-09-18T09:17:49;98201.88;;;20.30;70.45
82160;BME280;71734;50.876;7.372;2023-09-18T09:20:16;98199.94;;;20.32;70.82
82160;BME280;71734;50.876;7.372;2023-09-18T09:22:45;98202.50;;;20.43;71.12
82160;BME280;71734;50.876;7.372;2023-09-18T09:25:25;98199.69;;;20.45;69.48
82160;BME280;71734;50.876;7.372;2023-09-18T09:34:44;98198.59;;;20.26;69.89
82160;BME280;71734;50.876;7.372;2023-09-18T09:37:12;98200.91;;;20.31;70.64
82160;BME280;71734;50.876;7.372;2023-09-18T09:39:50;98192.63;;;20.13;70.24
82160;BME280;71734;50.876;7.372;2023-09-18T09:42:18;98205.91;;;20.15;70.72
82160;BME280;71734;50.876;7.372;2023-09-18T09:45:00;98206.25;;;20.21;70.50
82160;BME280;71734;50.876;7.372;2023-09-18T09:47:27;98200.25;;;20.18;71.17
82160;BME280;71734;50.876;7.372;2023-09-18T09:49:55;98180.44;;;20.09;70.14
82160;BME280;71734;50.876;7.372;2023-09-18T09:52:21;98192.63;;;20.13;71.11
82160;BME280;71734;50.876;7.372;2023-09-18T09:54:49;98192.31;;;20.07;71.40
82160;BME280;71734;50.876;7.372;2023-09-18T09:57:16;98192.31;;;20.07;71.57
82160;BME280;71734;50.876;7.372;2023-09-18T09:59:42;98208.50;;;20.16;71.43
82160;BME280;71734;50.876;7.372;2023-09-18T10:02:10;98210.72;;;20.11;70.38
82160;BME280;71734;50.876;7.372;2023-09-18T10:04:40;98203.38;;;20.13;70.54
82160;BME280;71734;50.876;7.372;2023-09-18T10:07:08;98216.38;;;20.08;70.22
82160;BME280;71734;50.876;7.372;2023-09-18T10:09:40;98214.53;;;20.29;69.50
82160;BME280;71734;50.876;7.372;2023-09-18T10:12:10;98205.34;;;20.42;69.97
82160;BME280;71734;50.876;7.372;2023-09-18T10:14:38;98202.81;;;20.59;68.92
82160;BME280;71734;50.876;7.372;2023-09-18T10:17:12;98207.50;;;20.67;69.23
82160;BME280;71734;50.876;7.372;2023-09-18T10:19:45;98201.59;;;21.02;67.72
82160;BME280;71734;50.876;7.372;2023-09-18T10:22:23;98207.63;;;21.71;64.91
82160;BME280;71734;50.876;7.372;2023-09-18T10:24:54;98199.19;;;21.93;64.21
82160;BME280;71734;50.876;7.372;2023-09-18T10:27:27;98202.72;;;22.31;63.37
82160;BME280;71734;50.876;7.372;2023-09-18T10:29:54;98203.88;;;22.01;64.92
82160;BME280;71734;50.876;7.372;2023-09-18T10:32:22;98199.91;;;22.50;62.65
82160;BME280;71734;50.876;7.372;2023-09-18T10:34:50;98203.78;;;22.92;61.92
82160;BME280;71734;50.876;7.372;2023-09-18T10:37:17;98200.31;;;22.82;62.11
82160;BME280;71734;50.876;7.372;2023-09-18T10:39:45;98202.84;;;22.84;61.14
82160;BME280;71734;50.876;7.372;2023-09-18T10:42:16;98211.19;;;23.08;60.56
82160;BME280;71734;50.876;7.372;2023-09-18T10:44:44;98208.13;;;22.85;61.49
82160;BME280;71734;50.876;7.372;2023-09-18T10:47:12;98208.72;;;23.50;59.21
82160;BME280;71734;50.876;7.372;2023-09-18T10:49:40;98208.88;;;23.48;58.65
82160;BME280;71734;50.876;7.372;2023-09-18T10:52:11;98213.94;;;23.69;60.03
82160;BME280;71734;50.876;7.372;2023-09-18T10:54:38;98215.19;;;23.57;58.75
82160;BME280;71734;50.876;7.372;2023-09-18T10:57:05;98199.44;;;23.78;58.22
82160;BME280;71734;50.876;7.372;2023-09-18T10:59:32;98204.84;;;24.04;57.79
82160;BME280;71734;50.876;7.372;2023-09-18T11:02:03;98206.38;;;24.06;57.02
82160;BME280;71734;50.876;7.372;2023-09-18T11:04:31;98200.06;;;23.46;58.63
82160;BME280;71734;50.876;7.372;2023-09-18T11:07:02;98208.09;;;24.07;57.37
82160;BME280;71734;50.876;7.372;2023-09-18T11:09:32;98207.56;;;23.78;57.68
82160;BME280;71734;50.876;7.372;2023-09-18T11:12:06;98204.59;;;23.89;57.31
82160;BME280;71734;50.876;7.372;2023-09-18T11:14:45;98191.44;;;23.43;58.89
82160;BME280;71734;50.876;7.372;2023-09-18T11:17:29;98196.41;;;23.81;57.75
82160;BME280;71734;50.876;7.372;2023-09-18T11:20:02;98194.78;;;23.63;58.76
82160;BME280;71734;50.876;7.372;2023-09-18T11:22:30;98218.16;;;23.10;59.79
82160;BME280;71734;50.876;7.372;2023-09-18T11:25:30;98199.56;;;22.90;59.72
82160;BME280;71734;50.876;7.372;2023-09-18T11:28:00;98211.22;;;22.90;60.18
82160;BME280;71734;50.876;7.372;2023-09-18T11:30:28;98202.53;;;23.83;57.99
82160;BME280;71734;50.876;7.372;2023-09-18T11:32:57;98205.69;;;23.53;58.71
82160;BME280;71734;50.876;7.372;2023-09-18T11:35:25;98187.16;;;24.60;54.94
82160;BME280;71734;50.876;7.372;2023-09-18T11:38:05;98193.56;;;24.50;54.80
82160;BME280;71734;50.876;7.372;2023-09-18T11:40:33;98184.41;;;25.02;54.37
82160;BME280;71734;50.876;7.372;2023-09-18T11:43:19;98188.22;;;24.17;53.75
82160;BME280;71734;50.876;7.372;2023-09-18T11:45:49;98193.91;;;24.47;53.82
82160;BME280;71734;50.876;7.372;2023-09-18T11:48:18;98203.63;;;24.74;53.01
82160;BME280;71734;50.876;7.372;2023-09-18T11:50:46;98180.34;;;24.97;53.46
82160;BME280;71734;50.876;7.372;2023-09-18T11:53:16;98180.16;;;25.07;52.50
82160;BME280;71734;50.876;7.372;2023-09-18T11:55:45;98184.41;;;25.50;49.50
82160;BME280;71734;50.876;7.372;2023-09-18T11:58:11;98170.88;;;25.18;51.12
82160;BME280;71734;50.876;7.372;2023-09-18T12:00:38;98167.78;;;25.77;50.62
82160;BME280;71734;50.876;7.372;2023-09-18T12:03:19;98176.72;;;26.02;48.18
82160;BME280;71734;50.876;7.372;2023-09-18T12:05:52;98165.31;;;26.54;47.57
82160;BME280;71734;50.876;7.372;2023-09-18T12:08:19;98163.03;;;25.87;48.82
82160;BME280;71734;50.876;7.372;2023-09-18T12:10:49;98145.44;;;26.22;48.37
82160;BME280;71734;50.876;7.372;2023-09-18T12:13:15;98152.38;;;25.45;49.25
82160;BME280;71734;50.876;7.372;2023-09-18T12:15:42;98140.19;;;26.05;48.56
82160;BME280;71734;50.876;7.372;2023-09-18T12:18:09;98144.22;;;26.25;47.21
82160;BME280;71734;50.876;7.372;2023-09-18T12:20:44;98140.22;;;26.74;46.35
82160;BME280;71734;50.876;7.372;2023-09-18T12:23:10;98153.47;;;26.77;46.03
82160;BME280;71734;50.876;7.372;2023-09-18T12:25:38;98119.91;;;25.84;47.02
82160;BME280;71734;50.876;7.372;2023-09-18T12:28:06;98129.47;;;25.64;46.73
82160;BME280;71734;50.876;7.372;2023-09-18T12:30:33;98125.00;;;25.96;48.80
82160;BME280;71734;50.876;7.372;2023-09-18T12:33:00;98127.38;;;25.90;45.91
82160;BME280;71734;50.876;7.372;2023-09-18T12:35:29;98120.34;;;26.20;45.88
82160;BME280;71734;50.876;7.372;2023-09-18T12:37:57;98129.47;;;25.64;44.89
82160;BME280;71734;50.876;7.372;2023-09-18T12:40:25;98109.06;;;25.84;46.58
82160;BME280;71734;50.876;7.372;2023-09-18T12:42:54;98117.09;;;26.09;46.72
82160;BME280;71734;50.876;7.372;2023-09-18T12:45:21;98123.75;;;26.45;46.36
82160;BME280;71734;50.876;7.372;2023-09-18T12:47:47;98127.63;;;26.51;45.85
82160;BME280;71734;50.876;7.372;2023-09-18T12:50:14;98126.97;;;25.30;46.73
82160;BME280;71734;50.876;7.372;2023-09-18T12:52:41;98120.66;;;24.81;49.29
82160;BME280;71734;50.876;7.372;2023-09-18T12:55:21;98130.19;;;25.26;47.65
82160;BME280;71734;50.876;7.372;2023-09-18T12:57:49;98138.97;;;25.28;47.27
82160;BME280;71734;50.876;7.372;2023-09-18T13:00:17;98145.75;;;25.56;48.39
82160;BME280;71734;50.876;7.372;2023-09-18T13:02:45;98141.38;;;25.55;47.43
82160;BME280;71734;50.876;7.372;2023-09-18T13:05:11;98137.22;;;24.78;48.26
82160;BME280;71734;50.876;7.372;2023-09-18T13:07:48;98136.91;;;24.65;48.86
82160;BME280;71734;50.876;7.372;2023-09-18T13:10:16;98139.16;;;24.28;49.04
82160;BME280;71734;50.876;7.372;2023-09-18T13:12:49;98146.56;;;24.84;49.19
82160;BME280;71734;50.876;7.372;2023-09-18T13:15:24;98143.06;;;25.08;48.06